Flight Track Log - Related Links

Times and Time Zones

All times are in EDT time to prevent confusion due to time zone crossing. See the JBU56 flight status page for this flight to view local times or setup timezone preferences in your user account.

Time Position Orientation Groundspeed Altitude Reporting Facility
EDT Latitude Longitude Course Direction KTS MPH feet Rate Location/Type
Fri 09:24:53 AM 40.6667 -73.7000 14° North 214 246 2,400  Level New York TRACON
Fri 09:25:59 AM 40.7000 -73.6167 62° Northeast 267 307 5,000 2,791 Climbing New York TRACON
Fri 09:26:00 AM 40.8696 -73.6333 North  Level FlightAware Approximate
Fri 09:27:00 AM 40.9556 -73.5972 21° North  Level FlightAware Approximate
Fri 09:28:00 AM 41.0397 -73.5513 27° Northeast  Level FlightAware Approximate
Fri 09:28:28 AM 40.8289 -73.4358 47° Northeast 300 345 12,400  Level Boston Center
Fri 09:29:00 AM 41.1210 -73.4971 27° Northeast  Level FlightAware Approximate
Fri 09:29:28 AM 40.9206 -73.4153 10° North 298 343 14,500  Level Boston Center
Fri 09:30:00 AM 41.2042 -73.4486 14° North  Level FlightAware Approximate
Fri 09:31:28 AM 41.1169 -73.3794 North 354 407 18,900  Level Boston Center
Fri 09:32:28 AM 41.2358 -73.3619 North 366 421 20,600 1,050 Climbing Boston Center
Fri 09:33:28 AM 41.3422 -73.3469 North 377 434 21,000 200 Climbing Boston Center
Fri 09:34:28 AM 41.4486 -73.3403 North 382 440 21,000  Level Boston Center
Fri 09:35:28 AM 41.5422 -73.3386 North 382 440 21,000  Level Boston Center
Fri 09:36:28 AM 41.6611 -73.3292 North 382 440 21,000  Level Boston Center
Fri 09:37:28 AM 41.7550 -73.3250 North 382 440 21,000  Level Boston Center
Fri 09:38:28 AM 41.8697 -73.3156 North 382 440 21,000  Level Boston Center
Fri 09:39:28 AM 41.9656 -73.3111 North 382 440 21,000  Level Boston Center
Fri 09:40:28 AM 42.0825 -73.3044 North 382 440 21,000  Level Boston Center
Fri 09:41:28 AM 42.1783 -73.2972 North 382 440 21,000  Level Boston Center
Fri 09:42:28 AM 42.2950 -73.2878 North 382 440 21,000  Level Boston Center
Fri 09:43:28 AM 42.4014 -73.2781 North 382 440 21,000  Level Boston Center
Fri 09:44:28 AM 42.5058 -73.2708 North 382 440 21,000  Level Boston Center
Fri 09:45:28 AM 42.5911 -73.2664 North 382 440 21,000  Level Boston Center
Fri 09:46:28 AM 42.7161 -73.2878 353° North 382 440 21,000  Level Boston Center
Fri 09:47:28 AM 42.8203 -73.3092 351° North 382 440 21,000  Level Boston Center
Fri 09:48:28 AM 42.9222 -73.3247 354° North 382 440 21,000  Level Boston Center
Fri 09:49:28 AM 43.0306 -73.3178 North 382 440 21,000  Level Boston Center
Fri 09:50:28 AM 43.1369 -73.3078 North 382 440 21,000  Level Boston Center
Fri 09:51:28 AM 43.2433 -73.2953 North 387 445 21,000  Level Boston Center
Fri 09:52:28 AM 43.3497 -73.2822 North 387 445 21,000 -250 Level Boston Center
Fri 09:53:28 AM 43.4436 -73.2722 North 387 445 20,500 -1,050 Descending Boston Center
Fri 09:54:28 AM 43.5500 -73.2594 North 387 445 18,900 -1,550 Descending Boston Center
Fri 09:55:28 AM 43.6522 -73.2492 North 382 440 17,400 -1,850 Descending Boston Center
Fri 09:56:28 AM 43.7606 -73.2364 North 363 418 15,200 -2,200 Descending Boston Center
Fri 09:57:28 AM 43.8522 -73.2261 North 363 418 13,000 -2,250 Descending Boston Center
Fri 09:58:28 AM 43.9544 -73.2158 North 368 423 10,700 -1,650 Descending Boston Center
Fri 09:59:28 AM 44.0422 -73.2025 North 343 395 9,700 -1,350 Descending Boston Center
Fri 10:00:28 AM 44.1275 -73.1950 North 313 360 8,000 -1,650 Descending Boston Center
Fri 10:01:28 AM 44.2069 -73.1669 14° North 301 346 6,400 -1,500 Descending Boston Center
Fri 10:02:40 AM 44.3092 -73.1333 13° North 281 323 4,700 -909 Descending Boston Center
Fri 10:03:40 AM 44.3739 -73.1053 17° North 257 296 4,400 -800 Descending Boston Center
Fri 10:04:40 AM 44.4158 -73.0678 33° Northeast 205 236 3,100 -1,650 Descending Boston Center
Fri 10:05:40 AM 44.4469 -73.1147 313° West 126 145 1,100 3,950 Descending Boston Center
Fri 10:06:40 AM 44.4694 -73.1528 310° West 135 155 11,000 4,950 Climbing Boston Center
Fri 10:07:40 AM 44.4736 -73.1558 332° Northwest 113 130 11,000  Level Boston Center
Fri 10:08:40 AM 44.4819 -73.1703 309° West 58 67 11,000  Level Boston Center
Fri 10:09:40 AM 44.4922 -73.1850 314° West 58 67 11,000  Level Boston Center

Login

Don't have an account? Register now (free) for customized features, flight alerts, and more!